»·PEaware :: N211WP KSBA-KTOA

N211WP :: KSBA-KTOA

FLIGHT INFORMATION

Flight Status: Arrived
Operator: Privately registered:
United States
More flights under this callsign
Pilot: Wayne M. (1794)
Aircraft: Unknown
(DA40)
More flights by this aircraft type
Origin: KSBA Santa Barbara Mun
United States
Destination: KTOA Zamperini
United States
More flights between these airports :: More routes between these airports
Route: +KWANG VTU V208 SXC
File this flight plan on PilotEdge
Remarks:
Altitude:
(Current/Filed)
7,000ft
Speed:
(Current/Filed)
135kts
Departed: 16-Jan-16 04:06 PM
Arrived: 16-Jan-16 05:16 PM
Distance/Time
Traveled:
83nm/1:10
Distance/Time
To Go:
Arrived

Flight Plot

Page will automatically refresh every two minutes.

Flight plan parsing failed; only flown route is shown


Map Options




Map Legend


Flown Route
Filed Route
Departure Airport
Arrival Airport
Navaid (VOR, NDB)
Fix

Horizontal Profiles

Position Reports

Time Latitude Longitude Heading Altitude Ground
Speed
16-Jan-16 15:33 34.432552 -119.835099 72 14ft 0kts
16-Jan-16 15:34 34.432552 -119.835099 72 14ft 0kts
16-Jan-16 15:35 34.432552 -119.835099 72 14ft 0kts
16-Jan-16 15:36 34.432552 -119.835099 72 14ft 0kts
16-Jan-16 15:37 34.432552 -119.835099 72 14ft 0kts
16-Jan-16 15:38 34.432552 -119.835099 72 14ft 0kts
16-Jan-16 15:39 34.432552 -119.835099 72 14ft 0kts
16-Jan-16 15:40 34.432552 -119.835099 72 14ft 0kts
16-Jan-16 15:41 34.432552 -119.835099 72 14ft 0kts
16-Jan-16 15:42 34.432552 -119.835099 72 14ft 0kts
16-Jan-16 15:43 34.432552 -119.835099 72 14ft 0kts
16-Jan-16 15:44 34.432552 -119.835099 72 14ft 0kts
16-Jan-16 15:45 34.432552 -119.835099 72 14ft 0kts
16-Jan-16 15:46 34.432552 -119.835099 72 14ft 0kts
16-Jan-16 15:47 34.432552 -119.835099 72 14ft 0kts
16-Jan-16 15:48 34.432552 -119.835099 72 14ft 0kts
16-Jan-16 15:49 34.432552 -119.835099 72 14ft 0kts
16-Jan-16 15:50 34.432552 -119.835099 72 14ft 0kts
16-Jan-16 15:51 34.432552 -119.835099 72 14ft 0kts
16-Jan-16 15:52 34.432552 -119.835099 72 14ft 0kts
16-Jan-16 15:53 34.432552 -119.835099 72 14ft 0kts
16-Jan-16 15:54 34.432552 -119.835099 72 14ft 0kts
16-Jan-16 15:55 34.432126 -119.835286 224 14ft 4kts
16-Jan-16 15:56 34.431539 -119.835383 177 14ft 4kts
16-Jan-16 15:57 34.430354 -119.835347 181 12ft 3kts
16-Jan-16 15:58 34.429287 -119.835316 176 11ft 5kts
16-Jan-16 15:59 34.428854 -119.835223 159 11ft 0kts
16-Jan-16 16:00 34.427809 -119.835583 266 11ft 10kts
16-Jan-16 16:01 34.427482 -119.849225 264 564ft 71kts
16-Jan-16 16:02 34.426933 -119.863061 263 1240ft 78kts
16-Jan-16 16:03 34.426284 -119.879240 260 2066ft 79kts
16-Jan-16 16:04 34.415562 -119.884224 154 2934ft 79kts
16-Jan-16 16:05 34.398014 -119.870334 152 4191ft 81kts
16-Jan-16 16:06 34.379879 -119.855155 152 5420ft 86kts
16-Jan-16 16:07 34.364211 -119.841610 152 6588ft 90kts
16-Jan-16 16:08 34.337830 -119.820605 152 7021ft 171kts
16-Jan-16 16:09 34.299035 -119.792046 152 7002ft 197kts
16-Jan-16 16:10 34.258302 -119.762263 152 6999ft 201kts
16-Jan-16 16:11 34.217403 -119.732498 152 6999ft 201kts
16-Jan-16 16:12 34.176057 -119.702442 152 6999ft 202kts
16-Jan-16 16:13 34.132961 -119.671208 152 6999ft 202kts
16-Jan-16 16:14 34.089336 -119.639695 152 6999ft 203kts
16-Jan-16 16:15 34.046475 -119.608845 152 6999ft 203kts
16-Jan-16 16:16 34.001758 -119.576783 152 6999ft 204kts
16-Jan-16 16:17 33.976946 -119.538378 122 7000ft 209kts
16-Jan-16 16:18 33.976946 -119.538378 122 7000ft 209kts
16-Jan-16 16:19 33.976946 -119.538378 122 7000ft 209kts
16-Jan-16 16:20 33.976946 -119.538378 122 7000ft 209kts
16-Jan-16 16:21 33.976440 -119.537380 121 7000ft 209kts
16-Jan-16 16:22 33.948572 -119.483800 123 6982ft 209kts
16-Jan-16 16:23 33.921563 -119.432866 123 6984ft 209kts
16-Jan-16 16:24 33.895856 -119.384599 123 6987ft 209kts
16-Jan-16 16:25 33.872605 -119.341007 123 6989ft 209kts
16-Jan-16 16:26 33.849145 -119.297073 122 6991ft 209kts
16-Jan-16 16:27 33.825495 -119.252843 123 6991ft 209kts
16-Jan-16 16:28 33.801339 -119.207730 123 6999ft 209kts
16-Jan-16 16:29 33.777829 -119.163877 123 7001ft 209kts
16-Jan-16 16:30 33.753380 -119.118329 122 7001ft 210kts
16-Jan-16 16:31 33.739406 -119.092323 122 7001ft 210kts
16-Jan-16 16:32 33.717387 -119.051374 122 7001ft 210kts
16-Jan-16 16:33 33.694314 -119.008514 123 7001ft 210kts
16-Jan-16 16:34 33.670012 -118.963428 123 7001ft 209kts
16-Jan-16 16:35 33.646001 -118.918941 123 7001ft 209kts
16-Jan-16 16:36 33.623541 -118.877061 123 6999ft 209kts
16-Jan-16 16:37 33.601353 -118.835819 124 6999ft 208kts
16-Jan-16 16:38 33.579973 -118.796320 124 6999ft 208kts
16-Jan-16 16:39 33.559296 -118.752671 93 6976ft 209kts
16-Jan-16 16:40 33.563801 -118.701935 82 6955ft 207kts
16-Jan-16 16:41 33.568472 -118.653611 82 6706ft 215kts
16-Jan-16 16:42 33.572891 -118.609297 81 6399ft 216kts
16-Jan-16 16:43 33.577529 -118.563941 81 6084ft 216kts
16-Jan-16 16:44 33.582279 -118.517935 81 5762ft 215kts
16-Jan-16 16:45 33.586964 -118.471746 81 5439ft 215kts
16-Jan-16 16:46 33.591212 -118.428847 81 5133ft 210kts
16-Jan-16 16:47 33.595156 -118.387128 81 4792ft 183kts
16-Jan-16 16:48 33.597813 -118.355903 81 4430ft 140kts
16-Jan-16 16:49 33.599835 -118.329117 81 4107ft 127kts
16-Jan-16 16:50 33.601541 -118.305105 81 3812ft 123kts
16-Jan-16 16:51 33.603352 -118.282593 81 3586ft 139kts
16-Jan-16 16:52 33.606151 -118.252054 81 3285ft 147kts
16-Jan-16 16:53 33.609020 -118.223856 81 3008ft 150kts
16-Jan-16 16:54 33.612467 -118.192792 81 2700ft 150kts
16-Jan-16 16:55 33.616471 -118.159496 81 2366ft 149kts
16-Jan-16 16:56 33.632468 -118.139390 350 2036ft 142kts
16-Jan-16 16:57 33.651415 -118.149171 331 2001ft 131kts
16-Jan-16 16:58 33.668690 -118.158864 331 2002ft 128kts
16-Jan-16 16:59 33.684967 -118.167924 331 2003ft 127kts
16-Jan-16 17:00 33.698264 -118.180596 307 2033ft 118kts
16-Jan-16 17:01 33.708305 -118.195612 305 2001ft 107kts
16-Jan-16 17:02 33.717911 -118.210063 305 2013ft 119kts
16-Jan-16 17:03 33.728213 -118.225515 305 2007ft 123kts
16-Jan-16 17:04 33.738590 -118.241098 306 2006ft 123kts
16-Jan-16 17:05 33.749318 -118.257228 306 1902ft 127kts
16-Jan-16 17:06 33.759530 -118.272584 305 1554ft 108kts
16-Jan-16 17:07 33.769480 -118.287573 306 1214ft 105kts
16-Jan-16 17:08 33.780273 -118.303808 306 850ft 100kts
16-Jan-16 17:09 33.791338 -118.320528 306 464ft 100kts
16-Jan-16 17:10 33.801682 -118.336082 311 102ft 71kts
16-Jan-16 17:11 33.805223 -118.341365 311 93ft 12kts
16-Jan-16 17:12 33.807349 -118.344515 305 89ft 20kts
16-Jan-16 17:13 33.807484 -118.346138 225 88ft 0kts

Navigation Log

Ident Type
Flight plan parsing failed, navigation log unavailable